Ana Sayfa
METAR-TAF:

METAR-TAF

Havaalanları :

Schoolcraft County Airport

Manistique, Michigan, Amerika Birleşik Devletleri

Enlem: 45-58-29N, Boylam: 086-10-19W, yükseklik: 209 m

Güncel hava durumu gözlemi

Rapor saat 00:59 UTC de 20 dakika önce yapıldı.
Sakin rüzgar
Sıcaklık 13°C
Nem 94%
Basınç 1025 hPa
Görüş mesafesi: 16.1 km
Açık gökyüzü

METAR: KISQ 250059Z AUTO 00000KT 10SM CLR 13/12 A3027 RMK AO2 T01330118

Saat: 21:19 (01:19 UTC)


TAF: eksik

4.000'den fazla havaalanı için hava durumu gözlemleri ve tahminleri (METAR ve TAF raporları).

Kullanılabilir istasyonlar harita üzerinde sarı ve kırmızı noktalarla gösterilir.

İstasyonun adını görmek için fareyi noktanın üzerinde gezdirin.

Sonrasında hava gözlem ve tahminlerini görmek için tıklayın.

Haritayı değiştirmek için: yaklaştırmak için siyah artı işaretli yeşil düğmeye ve uzaklaştırmak için de eksi işaretli düğmeye hızla tıklayın; bitişik haritalar için yeşil okları kullanın.


METAR-TAF: